Terminal Aerodrome Forecast
Issued by NWS

Current Version | Previous Version | Graphics & Text | Print | Product List | Glossary On
Versions: 1 2 3 4 5 6 7 8 9 10 11 12 13 14 15 16 17 18 19
000
FTUS41 KPBZ 271122
TAFHLG
TAF
KHLG 271122Z 2712/2812 17010G18KT P6SM BKN200
     FM272000 20010G20KT 5SM -SHRA VCTS BKN060CB
     FM280000 21007KT P6SM BKN060
     FM280800 26003KT P6SM SCT040=

USA.gov is the U.S. government's official web portal to all federal, state and local government web resources and services.